createdAt,value
2022-09-23T00:01:15.386Z,4.60
2022-09-23T00:03:47.435Z,5.10
2022-09-23T00:06:18.841Z,4.90
2022-09-23T00:08:45.942Z,5.30
2022-09-23T00:11:20.228Z,5.20
2022-09-23T00:13:50.549Z,5.00
2022-09-23T00:16:25.174Z,5.00
2022-09-23T00:18:52.533Z,4.80
2022-09-23T00:21:21.703Z,4.70
2022-09-23T00:23:49.114Z,4.80
2022-09-23T00:26:20.534Z,4.70
2022-09-23T00:28:48.821Z,4.60
2022-09-23T00:31:20.726Z,4.60
2022-09-23T00:33:47.944Z,5.00
2022-09-23T00:36:16.330Z,4.60
2022-09-23T00:38:45.196Z,4.30
2022-09-23T00:41:15.198Z,4.30
2022-09-23T00:43:52.928Z,4.40
2022-09-23T00:46:36.169Z,4.50
2022-09-23T00:49:17.570Z,4.50
2022-09-23T00:51:53.219Z,4.40
2022-09-23T00:54:24.164Z,4.60
2022-09-23T00:56:51.252Z,4.20
2022-09-23T00:59:18.799Z,4.20
2022-09-23T01:01:47.047Z,4.20
2022-09-23T01:04:14.769Z,4.40
2022-09-23T01:06:41.491Z,4.10
2022-09-23T01:09:08.227Z,4.40
2022-09-23T01:11:55.571Z,4.70
2022-09-23T01:14:52.922Z,5.10
2022-09-23T01:17:56.716Z,4.60
2022-09-23T01:20:56.053Z,3.90
2022-09-23T01:24:09.559Z,4.80
2022-09-23T01:26:56.764Z,3.90
2022-09-23T01:30:02.705Z,4.00
2022-09-23T01:32:59.904Z,3.90
2022-09-23T01:35:38.997Z,4.20
2022-09-23T01:38:52.512Z,3.40
2022-09-23T01:42:17.369Z,3.50
2022-09-23T01:44:53.048Z,4.30
2022-09-23T01:47:30.970Z,4.60
2022-09-23T01:50:25.026Z,5.30
2022-09-23T01:52:56.372Z,5.50
2022-09-23T01:55:31.053Z,4.60
2022-09-23T01:58:09.782Z,3.70
2022-09-23T02:00:44.135Z,4.30
2022-09-23T02:03:18.518Z,4.20
2022-09-23T02:05:57.033Z,4.00
2022-09-23T02:08:41.647Z,4.60
2022-09-23T02:13:58.540Z,5.20
2022-09-23T02:16:31.978Z,6.10
2022-09-23T02:19:15.452Z,5.90
2022-09-23T02:21:52.861Z,6.60
2022-09-23T02:24:30.578Z,6.30
2022-09-23T02:27:20.687Z,6.00
2022-09-23T02:30:35.169Z,6.00
2022-09-23T02:33:07.894Z,5.90
2022-09-23T02:36:05.880Z,5.60
2022-09-23T02:38:43.872Z,5.00
2022-09-23T02:41:18.373Z,5.40
2022-09-23T02:44:01.978Z,4.90
2022-09-23T02:46:30.124Z,4.60
2022-09-23T02:49:11.294Z,4.40
2022-09-23T02:51:40.399Z,4.80
2022-09-23T02:54:14.904Z,4.70
2022-09-23T02:56:41.888Z,4.40
2022-09-23T02:59:09.984Z,3.90
2022-09-23T03:02:17.666Z,4.40
2022-09-23T03:04:59.912Z,4.40
2022-09-23T03:07:59.915Z,4.60
2022-09-23T03:10:40.136Z,4.60
2022-09-23T03:13:35.511Z,4.80
2022-09-23T03:16:31.837Z,5.20
2022-09-23T03:19:17.706Z,5.30
2022-09-23T03:22:00.920Z,5.90
2022-09-23T03:24:32.128Z,5.50
2022-09-23T03:27:05.105Z,5.10
2022-09-23T03:29:37.234Z,4.90
2022-09-23T03:32:08.283Z,5.60
2022-09-23T03:34:39.120Z,10.70
2022-09-23T03:37:26.271Z,6.50
2022-09-23T03:40:00.860Z,6.10
2022-09-23T03:42:32.861Z,6.10
2022-09-23T03:45:01.395Z,6.70
2022-09-23T03:47:28.995Z,6.80
2022-09-23T03:49:56.820Z,8.50
2022-09-23T03:52:26.121Z,7.60
2022-09-23T03:54:53.919Z,7.40
2022-09-23T03:57:22.161Z,6.80
2022-09-23T03:59:52.842Z,6.70
2022-09-23T04:02:20.603Z,7.40
2022-09-23T04:04:47.743Z,7.30
2022-09-23T04:07:15.639Z,7.80
2022-09-23T04:09:42.279Z,8.10
2022-09-23T04:12:15.168Z,7.60
2022-09-23T04:14:42.895Z,6.50
2022-09-23T04:17:10.086Z,7.20
2022-09-23T04:19:37.056Z,6.70
2022-09-23T04:22:04.839Z,7.10
2022-09-23T04:24:31.570Z,6.90
2022-09-23T04:26:58.315Z,6.20
2022-09-23T04:29:26.086Z,6.90
2022-09-23T04:31:53.727Z,7.00
2022-09-23T04:34:21.648Z,6.60
2022-09-23T04:36:49.606Z,6.00
2022-09-23T04:39:18.071Z,6.20
2022-09-23T04:41:45.968Z,6.40
2022-09-23T04:44:14.796Z,6.60
2022-09-23T04:46:42.736Z,6.90
2022-09-23T04:49:09.923Z,6.90
2022-09-23T04:51:36.645Z,6.80
2022-09-23T04:54:03.358Z,7.30
2022-09-23T04:56:33.990Z,5.90
2022-09-23T04:59:04.678Z,5.70
2022-09-23T05:01:34.642Z,6.00
2022-09-23T05:04:10.254Z,6.10
2022-09-23T05:06:37.240Z,6.70
2022-09-23T05:09:09.102Z,7.00
2022-09-23T05:11:36.270Z,7.30
2022-09-23T05:14:03.585Z,9.40
2022-09-23T05:16:30.288Z,18.30
2022-09-23T05:18:58.064Z,16.00
2022-09-23T05:21:31.868Z,10.20
2022-09-23T05:24:00.889Z,8.90
2022-09-23T05:26:31.683Z,8.30
2022-09-23T05:29:00.022Z,8.70
2022-09-23T05:31:30.072Z,6.80
2022-09-23T05:34:03.069Z,7.80
2022-09-23T05:36:37.611Z,8.30
2022-09-23T05:39:06.737Z,11.20
2022-09-23T05:41:34.030Z,12.40
2022-09-23T05:44:01.942Z,14.20
2022-09-23T05:46:31.907Z,16.30
2022-09-23T05:49:02.895Z,18.90
2022-09-23T05:51:31.707Z,13.20
2022-09-23T05:54:00.220Z,11.10
2022-09-23T05:56:28.330Z,10.30
2022-09-23T05:58:58.547Z,8.40
2022-09-23T06:01:33.972Z,8.60
2022-09-23T06:04:04.536Z,10.40
2022-09-23T06:06:37.322Z,9.10
2022-09-23T06:09:07.281Z,12.60
2022-09-23T06:11:36.171Z,8.90
2022-09-23T06:14:04.254Z,9.10
2022-09-23T06:16:35.076Z,8.70
2022-09-23T06:19:06.343Z,7.70
2022-09-23T06:21:37.664Z,7.60
2022-09-23T06:24:06.390Z,7.30
2022-09-23T06:26:37.606Z,6.60
2022-09-23T06:29:11.852Z,7.50
2022-09-23T06:31:40.848Z,8.60
2022-09-23T06:34:13.391Z,7.20
2022-09-23T06:36:45.945Z,7.80
2022-09-23T06:39:16.327Z,7.50
2022-09-23T06:41:44.302Z,8.50
2022-09-23T06:44:11.062Z,8.50
2022-09-23T06:46:37.978Z,9.10
2022-09-23T06:49:04.621Z,8.00
2022-09-23T06:51:31.329Z,8.80
2022-09-23T06:53:57.910Z,8.10
2022-09-23T06:56:24.909Z,9.00
2022-09-23T06:58:52.968Z,8.60
2022-09-23T07:01:20.080Z,8.80
2022-09-23T07:03:48.527Z,7.90
2022-09-23T07:06:16.377Z,9.90
2022-09-23T07:08:46.955Z,8.50
2022-09-23T07:11:15.201Z,9.70
2022-09-23T07:13:42.933Z,10.50
2022-09-23T07:16:11.173Z,10.50
2022-09-23T07:18:38.501Z,10.00
2022-09-23T07:21:15.891Z,9.90
2022-09-23T07:23:48.617Z,9.70
2022-09-23T07:26:18.064Z,11.20
2022-09-23T07:28:45.512Z,9.90
2022-09-23T07:31:30.691Z,9.10
2022-09-23T07:34:02.370Z,8.50
2022-09-23T07:36:33.670Z,8.70
2022-09-23T07:39:02.343Z,8.30
2022-09-23T07:41:31.149Z,7.00
2022-09-23T07:44:00.558Z,8.50
2022-09-23T07:46:31.069Z,8.00
2022-09-23T07:48:58.731Z,6.20
2022-09-23T07:51:36.051Z,5.90
2022-09-23T07:54:10.405Z,6.70
2022-09-23T07:56:38.165Z,7.00
2022-09-23T07:59:09.164Z,6.10
2022-09-23T08:01:41.254Z,6.50
2022-09-23T08:04:31.291Z,4.70
2022-09-23T08:07:01.684Z,5.10
2022-09-23T08:09:35.975Z,5.10
2022-09-23T08:12:02.595Z,4.80
2022-09-23T08:14:29.200Z,3.90
2022-09-23T08:16:56.106Z,4.00
2022-09-23T08:19:22.716Z,3.50
2022-09-23T08:21:50.373Z,3.80
2022-09-23T08:24:20.881Z,2.40
2022-09-23T08:26:48.847Z,2.30
2022-09-23T08:29:17.797Z,2.90
2022-09-23T08:31:44.930Z,3.20
2022-09-23T08:34:12.255Z,3.00
2022-09-23T08:36:39.142Z,2.40
2022-09-23T08:39:09.385Z,2.30
2022-09-23T08:41:48.992Z,2.50
2022-09-23T08:44:44.137Z,2.30
2022-09-23T08:47:39.902Z,1.80
2022-09-23T08:50:24.946Z,2.20
2022-09-23T08:52:58.821Z,2.30
2022-09-23T08:55:51.777Z,3.70
2022-09-23T08:58:35.164Z,2.50
2022-09-23T09:01:27.163Z,1.90
2022-09-23T09:04:01.757Z,2.20
2022-09-23T09:06:53.947Z,2.00
2022-09-23T09:09:31.027Z,2.00
2022-09-23T09:12:34.225Z,1.60
2022-09-23T09:15:24.846Z,1.80
2022-09-23T09:18:11.463Z,1.60
2022-09-23T09:21:09.299Z,1.40
2022-09-23T09:23:50.219Z,1.50
2022-09-23T09:26:23.021Z,1.20
2022-09-23T09:29:02.504Z,1.30
2022-09-23T09:31:49.695Z,1.70
2022-09-23T09:34:41.462Z,1.30
2022-09-23T09:37:25.047Z,1.40
2022-09-23T09:39:51.916Z,1.30
2022-09-23T09:42:41.287Z,1.20
2022-09-23T09:45:33.623Z,1.10
2022-09-23T09:48:20.232Z,1.10
2022-09-23T09:50:52.301Z,0.90
2022-09-23T09:53:29.418Z,0.90
2022-09-23T09:56:12.707Z,1.10
2022-09-23T09:58:44.996Z,1.20
2022-09-23T10:01:41.201Z,1.10
2022-09-23T10:04:35.550Z,1.10
2022-09-23T10:07:15.743Z,1.30
2022-09-23T10:09:50.962Z,1.00
2022-09-23T10:12:26.222Z,1.10
2022-09-23T10:14:57.317Z,1.00
2022-09-23T10:17:34.714Z,1.20
2022-09-23T10:20:09.740Z,1.20
2022-09-23T10:22:42.453Z,1.30
2022-09-23T10:25:19.218Z,1.40
2022-09-23T10:27:45.974Z,1.10
2022-09-23T10:30:15.311Z,1.20
2022-09-23T10:32:45.430Z,1.20
2022-09-23T10:35:21.026Z,1.40
2022-09-23T10:37:56.747Z,1.30
2022-09-23T10:40:57.919Z,1.40
2022-09-23T10:44:07.044Z,1.40
2022-09-23T10:47:10.758Z,1.50
2022-09-23T10:50:03.750Z,1.30
2022-09-23T10:52:55.429Z,1.30
2022-09-23T10:56:14.368Z,1.30
2022-09-23T10:59:24.274Z,1.40
2022-09-23T11:01:54.843Z,1.30
2022-09-23T11:05:08.029Z,1.30
2022-09-23T11:08:04.056Z,1.20
2022-09-23T11:11:02.405Z,1.30
2022-09-23T11:13:58.862Z,1.50
2022-09-23T11:16:54.571Z,1.40
2022-09-23T11:20:00.354Z,1.80
2022-09-23T11:23:05.738Z,2.10
2022-09-23T11:25:51.137Z,2.00
2022-09-23T11:28:26.180Z,1.60
2022-09-23T11:31:22.724Z,1.30
2022-09-23T11:34:01.705Z,1.30
2022-09-23T11:36:38.814Z,1.90
2022-09-23T11:39:17.396Z,2.10
2022-09-23T11:41:46.055Z,1.60
2022-09-23T11:44:44.965Z,1.70
2022-09-23T11:47:23.652Z,2.20
2022-09-23T11:50:05.439Z,2.10
2022-09-23T11:52:47.089Z,2.30
2022-09-23T11:55:24.424Z,2.70
2022-09-23T11:57:56.489Z,5.60
2022-09-23T12:00:34.293Z,2.00
2022-09-23T12:03:18.857Z,1.30
2022-09-23T12:05:53.140Z,1.10
2022-09-23T12:08:32.364Z,0.90
2022-09-23T12:11:28.168Z,1.30
2022-09-23T12:14:15.492Z,1.20
2022-09-23T12:17:37.440Z,1.10
2022-09-23T12:20:44.815Z,1.20
2022-09-23T12:23:42.617Z,1.30
2022-09-23T12:26:17.827Z,1.10
2022-09-23T12:28:49.363Z,1.10
2022-09-23T12:31:20.335Z,1.20
2022-09-23T12:33:53.646Z,1.40
2022-09-23T12:36:34.778Z,1.20
2022-09-23T12:39:17.319Z,1.30
2022-09-23T12:41:50.722Z,1.10
2022-09-23T12:44:37.908Z,1.40
2022-09-23T12:47:25.651Z,1.10
2022-09-23T12:50:01.282Z,1.30
2022-09-23T12:52:33.423Z,1.50
2022-09-23T12:55:35.601Z,1.60
2022-09-23T12:58:40.789Z,1.40
2022-09-23T13:01:33.326Z,1.30
2022-09-23T13:04:18.853Z,1.50
2022-09-23T13:07:08.143Z,1.70
2022-09-23T13:09:47.574Z,1.40
2022-09-23T13:12:23.241Z,1.20
2022-09-23T13:14:55.996Z,1.30
2022-09-23T13:17:30.774Z,1.30
2022-09-23T13:20:02.807Z,1.30
2022-09-23T13:22:53.831Z,1.40
2022-09-23T13:25:29.511Z,1.50
2022-09-23T13:28:01.603Z,1.50
2022-09-23T13:30:28.631Z,1.30
2022-09-23T13:33:44.944Z,1.20
2022-09-23T13:36:16.372Z,1.30
2022-09-23T13:38:43.302Z,1.20
2022-09-23T13:41:18.958Z,1.40
2022-09-23T13:43:51.666Z,1.30
2022-09-23T13:46:28.929Z,1.20
2022-09-23T13:48:56.701Z,1.40
2022-09-23T13:51:31.663Z,1.40
2022-09-23T13:54:01.655Z,1.00
2022-09-23T13:56:32.234Z,1.10
2022-09-23T13:59:25.799Z,1.40
2022-09-23T14:02:11.972Z,1.40
2022-09-23T14:04:39.450Z,1.30
2022-09-23T14:07:10.661Z,1.50
2022-09-23T14:09:42.867Z,1.60
2022-09-23T14:12:11.039Z,1.50
2022-09-23T14:14:40.933Z,1.50
2022-09-23T14:17:10.221Z,1.30
2022-09-23T14:19:37.403Z,1.30
2022-09-23T14:22:04.138Z,1.40
2022-09-23T14:24:37.418Z,1.40
2022-09-23T14:27:06.663Z,1.50
2022-09-23T14:29:46.636Z,1.40
2022-09-23T14:32:21.034Z,1.40
2022-09-23T14:35:14.632Z,1.30
2022-09-23T14:38:03.960Z,1.40
2022-09-23T14:40:34.587Z,1.30
2022-09-23T14:43:23.180Z,1.40
2022-09-23T14:45:58.325Z,1.20
2022-09-23T14:48:33.447Z,1.30
2022-09-23T14:51:09.967Z,1.50
2022-09-23T14:53:48.991Z,1.90
2022-09-23T14:56:21.101Z,2.00
2022-09-23T14:58:59.151Z,1.50
2022-09-23T15:01:32.231Z,1.60
2022-09-23T15:04:30.921Z,1.60
2022-09-23T15:07:04.587Z,1.60
2022-09-23T15:09:40.061Z,1.70
2022-09-23T15:12:14.779Z,1.60
2022-09-23T15:14:50.581Z,1.40
2022-09-23T15:17:32.695Z,1.50
2022-09-23T15:20:08.521Z,2.20
2022-09-23T15:22:56.258Z,2.00
2022-09-23T15:25:40.113Z,1.90
2022-09-23T15:28:06.628Z,1.70
2022-09-23T15:30:36.478Z,1.70
2022-09-23T15:33:03.322Z,1.90
2022-09-23T15:35:32.219Z,2.00
2022-09-23T15:38:01.748Z,1.90
2022-09-23T15:40:35.642Z,1.80
2022-09-23T15:43:21.674Z,2.20
2022-09-23T15:45:50.458Z,2.40
2022-09-23T15:48:22.755Z,2.20
2022-09-23T15:50:54.648Z,2.20
2022-09-23T15:53:28.007Z,2.30
2022-09-23T15:55:54.794Z,2.20
2022-09-23T15:58:23.615Z,2.20
2022-09-23T16:00:56.566Z,2.60
2022-09-23T16:03:29.095Z,2.90
2022-09-23T16:06:01.140Z,3.20
2022-09-23T16:08:29.455Z,3.50
2022-09-23T16:10:56.265Z,3.80
2022-09-23T16:13:23.108Z,3.80
2022-09-23T16:15:50.080Z,5.80
2022-09-23T16:18:17.021Z,5.30
2022-09-23T16:20:46.482Z,6.90
2022-09-23T16:23:35.751Z,7.30
2022-09-23T16:26:15.374Z,7.20
2022-09-23T16:28:44.191Z,8.20
2022-09-23T16:31:11.932Z,7.80
2022-09-23T16:33:39.078Z,8.50
2022-09-23T16:36:28.995Z,9.10
2022-09-23T16:38:56.170Z,6.50
2022-09-23T16:41:28.107Z,10.30
2022-09-23T16:43:56.390Z,10.10
2022-09-23T16:46:27.196Z,18.20
2022-09-23T16:48:53.912Z,9.70
2022-09-23T16:51:24.327Z,7.80
2022-09-23T16:53:51.716Z,8.00
2022-09-23T16:56:27.237Z,7.40
2022-09-23T16:58:55.828Z,8.20
2022-09-23T17:01:47.479Z,7.50
2022-09-23T17:04:16.637Z,7.50
2022-09-23T17:06:50.090Z,6.90
2022-09-23T17:09:24.697Z,7.90
2022-09-23T17:12:22.155Z,7.20
2022-09-23T17:14:48.927Z,7.30
2022-09-23T17:17:15.647Z,6.70
2022-09-23T17:19:42.206Z,6.20
2022-09-23T17:22:09.881Z,6.80
2022-09-23T17:24:36.420Z,6.40
2022-09-23T17:27:03.061Z,9.90
2022-09-23T17:29:29.967Z,6.70
2022-09-23T17:31:56.652Z,6.70
2022-09-23T17:34:24.171Z,7.50
2022-09-23T17:36:50.897Z,8.80
2022-09-23T17:39:17.730Z,12.80
2022-09-23T17:41:45.431Z,17.30
2022-09-23T17:44:12.356Z,28.30
2022-09-23T17:46:38.959Z,27.00
2022-09-23T17:49:06.866Z,22.00
2022-09-23T17:51:33.473Z,18.80
2022-09-23T17:54:00.053Z,17.60
2022-09-23T17:56:29.948Z,16.90
2022-09-23T17:59:01.917Z,18.60
2022-09-23T18:01:29.593Z,21.60
2022-09-23T18:03:59.487Z,24.00
2022-09-23T18:06:32.895Z,20.10
2022-09-23T18:09:03.906Z,18.70
2022-09-23T18:11:37.024Z,18.10
2022-09-23T18:14:08.003Z,16.80
2022-09-23T18:16:39.522Z,16.40
2022-09-23T18:19:10.613Z,21.90
2022-09-23T18:21:41.119Z,26.60
2022-09-23T18:24:31.157Z,23.40
2022-09-23T18:26:59.632Z,19.30
2022-09-23T18:29:26.654Z,19.10
2022-09-23T18:31:53.425Z,18.60
2022-09-23T18:34:20.492Z,18.00
2022-09-23T18:36:47.684Z,21.90
2022-09-23T18:39:14.503Z,22.00
2022-09-23T18:41:41.543Z,17.50
2022-09-23T18:44:09.661Z,17.10
2022-09-23T18:46:36.797Z,16.80
2022-09-23T18:49:23.147Z,16.50
2022-09-23T18:51:54.816Z,13.80
2022-09-23T18:54:24.259Z,14.50
2022-09-23T18:56:52.797Z,11.30
2022-09-23T18:59:23.936Z,12.60
2022-09-23T19:01:51.684Z,13.30
2022-09-23T19:04:24.032Z,15.70
2022-09-23T19:06:51.122Z,27.80
2022-09-23T19:09:19.061Z,68.50
2022-09-23T19:11:46.554Z,134.70
2022-09-23T19:14:13.745Z,140.40
2022-09-23T19:16:41.488Z,165.90
2022-09-23T19:19:09.464Z,133.00
2022-09-23T19:21:37.420Z,150.60
2022-09-23T19:24:07.570Z,102.60
2022-09-23T19:26:39.052Z,72.40
2022-09-23T19:29:08.794Z,65.60
2022-09-23T19:31:40.147Z,60.90
2022-09-23T19:34:13.452Z,52.80
2022-09-23T19:36:43.974Z,42.30
2022-09-23T19:39:25.103Z,41.70
2022-09-23T19:41:56.057Z,37.90
2022-09-23T19:44:25.382Z,27.40
2022-09-23T19:46:56.380Z,20.40
2022-09-23T19:49:25.026Z,28.20
2022-09-23T19:51:55.491Z,27.10
2022-09-23T19:54:22.800Z,41.30
2022-09-23T19:56:50.009Z,32.90
2022-09-23T19:59:19.064Z,37.00
2022-09-23T20:01:48.344Z,40.90
2022-09-23T20:04:16.604Z,46.30
2022-09-23T20:06:43.421Z,43.20
2022-09-23T20:09:10.234Z,44.80
2022-09-23T20:11:36.992Z,43.00
2022-09-23T20:14:06.011Z,42.80
2022-09-23T20:16:37.353Z,44.50
2022-09-23T20:19:05.730Z,41.20
2022-09-23T20:21:33.808Z,34.20
2022-09-23T20:24:01.749Z,31.40
2022-09-23T20:26:46.794Z,31.10
2022-09-23T20:29:13.457Z,29.00
2022-09-23T20:31:42.916Z,29.00
2022-09-23T20:34:11.140Z,26.90
2022-09-23T20:36:41.352Z,25.90
2022-09-23T20:39:10.389Z,30.70
2022-09-23T20:41:39.372Z,27.20
2022-09-23T20:44:12.412Z,27.50
2022-09-23T20:46:48.634Z,24.30
2022-09-23T20:49:23.811Z,26.30
2022-09-23T20:51:50.945Z,25.00
2022-09-23T20:54:21.932Z,25.40
2022-09-23T20:56:48.587Z,23.50
2022-09-23T20:59:17.786Z,23.70
2022-09-23T21:01:45.422Z,21.90
2022-09-23T21:04:12.111Z,20.30
2022-09-23T21:06:39.716Z,19.20
2022-09-23T21:09:07.181Z,20.00
2022-09-23T21:11:33.893Z,18.80
2022-09-23T21:14:01.660Z,17.80
2022-09-23T21:16:29.731Z,16.30
2022-09-23T21:18:57.637Z,17.60
2022-09-23T21:21:24.758Z,16.80
2022-09-23T21:23:52.049Z,17.00
2022-09-23T21:26:23.409Z,17.80
2022-09-23T21:28:59.320Z,17.20
2022-09-23T21:31:38.823Z,15.70
2022-09-23T21:34:07.925Z,15.50
2022-09-23T21:36:41.469Z,17.60
2022-09-23T21:39:10.488Z,16.00
2022-09-23T21:41:38.081Z,15.50
2022-09-23T21:44:06.634Z,17.90
2022-09-23T21:46:34.666Z,22.30
2022-09-23T21:49:03.949Z,18.60
2022-09-23T21:51:40.624Z,17.60
2022-09-23T21:54:14.245Z,17.90
2022-09-23T21:56:41.519Z,17.90
2022-09-23T21:59:08.490Z,17.90
2022-09-23T22:01:44.545Z,18.50
2022-09-23T22:04:18.198Z,18.40
2022-09-23T22:06:46.389Z,17.30
2022-09-23T22:09:18.054Z,16.90
2022-09-23T22:12:04.016Z,18.20
2022-09-23T22:14:31.345Z,18.00
2022-09-23T22:17:04.602Z,18.70
2022-09-23T22:19:35.346Z,17.30
2022-09-23T22:22:07.815Z,17.70
2022-09-23T22:24:34.489Z,17.40
2022-09-23T22:27:01.224Z,18.70
2022-09-23T22:29:46.780Z,18.00
2022-09-23T22:32:31.859Z,15.90
2022-09-23T22:34:58.429Z,16.70
2022-09-23T22:37:34.930Z,16.60
2022-09-23T22:40:08.550Z,16.90
2022-09-23T22:42:36.545Z,16.00
2022-09-23T22:45:05.870Z,16.20
2022-09-23T22:47:38.331Z,14.40
2022-09-23T22:50:09.475Z,13.60
2022-09-23T22:52:37.909Z,14.20
2022-09-23T22:55:08.151Z,14.40
2022-09-23T22:57:35.331Z,13.40
2022-09-23T23:00:06.401Z,14.50
2022-09-23T23:02:33.184Z,14.70
2022-09-23T23:05:00.516Z,16.60
2022-09-23T23:07:27.091Z,17.80
2022-09-23T23:09:53.908Z,20.40
2022-09-23T23:12:21.422Z,21.00
2022-09-23T23:14:49.590Z,20.40
2022-09-23T23:17:16.783Z,22.00
2022-09-23T23:19:43.711Z,24.00
2022-09-23T23:22:10.400Z,27.10
2022-09-23T23:24:37.142Z,30.20
2022-09-23T23:27:03.779Z,27.60
2022-09-23T23:29:30.478Z,27.40
2022-09-23T23:31:57.115Z,28.50
2022-09-23T23:34:23.718Z,26.00
2022-09-23T23:36:55.101Z,25.70
2022-09-23T23:39:24.217Z,28.40
2022-09-23T23:41:55.637Z,20.90
2022-09-23T23:44:24.705Z,19.80
2022-09-23T23:46:51.931Z,18.40
2022-09-23T23:49:18.612Z,19.70
2022-09-23T23:51:45.636Z,17.70
2022-09-23T23:54:12.537Z,16.90
2022-09-23T23:56:39.355Z,16.90
2022-09-23T23:59:05.955Z,15.30
